Weather at Paraburdoo Airport

Public forecast

Using degrees Celsius for public forecast. Weather courtesy of forecast.io.

Closest aviation weather report (METAR) to Paraburdoo Airport

Closest report is Port Hedland International Airport, 174.8 nm (323.6 km) NNE.

2024/05/20 04:30 (retrieved 39 minutes ago)

YPPD 200430Z AUTO 10015KT 9999 // NCD 30/04 Q1017 RF000/0000

Closest aviation forecast (TAF) to Paraburdoo Airport

Forecast is more than 6 hours old.

Closest forecast is Geraldton Airport, 375.4 nm (695.2 km) SSW.

2024/05/19 22:00 Ammendment (retrieved 7 hours ago)

TAF AMD YGEL 192233Z 1922/2018 03014KT CAVOK FM200100 03016G26KT CAVOK FM200500 04010KT CAVOK